sensor_id;sensor_type;location;lat;lon;timestamp;temperature;humidity
49224;DHT22;35050;51.316;5.994;2023-03-01T00:01:27;2.70;99.90
49224;DHT22;35050;51.316;5.994;2023-03-01T00:03:54;2.70;99.90
49224;DHT22;35050;51.316;5.994;2023-03-01T00:06:20;2.60;99.90
49224;DHT22;35050;51.316;5.994;2023-03-01T00:08:47;2.50;99.90
49224;DHT22;35050;51.316;5.994;2023-03-01T00:13:44;2.50;99.90
49224;DHT22;35050;51.316;5.994;2023-03-01T00:16:12;2.50;99.90
49224;DHT22;35050;51.316;5.994;2023-03-01T00:18:39;2.80;99.90
49224;DHT22;35050;51.316;5.994;2023-03-01T00:21:05;2.60;99.90
49224;DHT22;35050;51.316;5.994;2023-03-01T00:23:31;2.60;99.90
49224;DHT22;35050;51.316;5.994;2023-03-01T00:25:58;2.60;99.90
49224;DHT22;35050;51.316;5.994;2023-03-01T00:28:24;2.60;99.90
49224;DHT22;35050;51.316;5.994;2023-03-01T00:30:50;2.60;99.90
49224;DHT22;35050;51.316;5.994;2023-03-01T00:33:15;2.60;99.90
49224;DHT22;35050;51.316;5.994;2023-03-01T00:35:41;2.70;99.90
49224;DHT22;35050;51.316;5.994;2023-03-01T00:38:07;2.60;99.90
49224;DHT22;35050;51.316;5.994;2023-03-01T00:40:34;2.50;99.90
49224;DHT22;35050;51.316;5.994;2023-03-01T00:43:00;2.50;99.90
49224;DHT22;35050;51.316;5.994;2023-03-01T00:45:26;2.50;99.90
49224;DHT22;35050;51.316;5.994;2023-03-01T00:47:52;2.50;99.90
49224;DHT22;35050;51.316;5.994;2023-03-01T00:50:19;2.40;99.90
49224;DHT22;35050;51.316;5.994;2023-03-01T00:52:45;2.40;99.90
49224;DHT22;35050;51.316;5.994;2023-03-01T00:55:11;2.40;99.90
49224;DHT22;35050;51.316;5.994;2023-03-01T00:57:37;2.50;99.90
49224;DHT22;35050;51.316;5.994;2023-03-01T01:00:04;2.40;99.90
49224;DHT22;35050;51.316;5.994;2023-03-01T01:02:32;2.40;99.90
49224;DHT22;35050;51.316;5.994;2023-03-01T01:04:58;2.30;99.90
49224;DHT22;35050;51.316;5.994;2023-03-01T01:07:24;2.30;99.90
49224;DHT22;35050;51.316;5.994;2023-03-01T01:09:49;2.30;99.90
49224;DHT22;35050;51.316;5.994;2023-03-01T01:12:15;2.30;99.90
49224;DHT22;35050;51.316;5.994;2023-03-01T01:14:41;2.20;99.90
49224;DHT22;35050;51.316;5.994;2023-03-01T01:17:06;2.20;99.90
49224;DHT22;35050;51.316;5.994;2023-03-01T01:19:32;2.20;99.90
49224;DHT22;35050;51.316;5.994;2023-03-01T01:21:57;2.20;99.90
49224;DHT22;35050;51.316;5.994;2023-03-01T01:24:23;2.20;99.90
49224;DHT22;35050;51.316;5.994;2023-03-01T01:26:49;2.20;99.90
49224;DHT22;35050;51.316;5.994;2023-03-01T01:29:15;2.10;99.90
49224;DHT22;35050;51.316;5.994;2023-03-01T01:31:42;2.10;99.90
49224;DHT22;35050;51.316;5.994;2023-03-01T01:34:15;2.10;99.90
49224;DHT22;35050;51.316;5.994;2023-03-01T01:36:41;2.10;99.90
49224;DHT22;35050;51.316;5.994;2023-03-01T01:39:07;2.00;99.90
49224;DHT22;35050;51.316;5.994;2023-03-01T01:41:33;2.00;99.90
49224;DHT22;35050;51.316;5.994;2023-03-01T01:46:59;2.00;99.90
49224;DHT22;35050;51.316;5.994;2023-03-01T01:49:33;2.00;99.90
49224;DHT22;35050;51.316;5.994;2023-03-01T01:52:46;2.00;99.90
49224;DHT22;35050;51.316;5.994;2023-03-01T01:55:06;1.90;99.90
49224;DHT22;35050;51.316;5.994;2023-03-01T01:57:40;1.90;99.90
49224;DHT22;35050;51.316;5.994;2023-03-01T02:00:17;1.90;99.90
49224;DHT22;35050;51.316;5.994;2023-03-01T02:02:44;1.90;99.90
49224;DHT22;35050;51.316;5.994;2023-03-01T02:07:59;1.90;99.90
49224;DHT22;35050;51.316;5.994;2023-03-01T02:10:26;1.80;99.90
49224;DHT22;35050;51.316;5.994;2023-03-01T02:12:54;1.90;99.90
49224;DHT22;35050;51.316;5.994;2023-03-01T02:15:22;1.80;99.90
49224;DHT22;35050;51.316;5.994;2023-03-01T02:17:48;1.80;99.90
49224;DHT22;35050;51.316;5.994;2023-03-01T02:20:26;1.80;99.90
49224;DHT22;35050;51.316;5.994;2023-03-01T02:22:55;1.70;99.90
49224;DHT22;35050;51.316;5.994;2023-03-01T02:27:56;1.70;99.90
49224;DHT22;35050;51.316;5.994;2023-03-01T02:30:24;1.70;99.90
49224;DHT22;35050;51.316;5.994;2023-03-01T02:32:51;1.60;99.90
49224;DHT22;35050;51.316;5.994;2023-03-01T02:35:18;1.60;99.90
49224;DHT22;35050;51.316;5.994;2023-03-01T02:37:45;1.60;99.90
49224;DHT22;35050;51.316;5.994;2023-03-01T02:40:15;1.70;99.90
49224;DHT22;35050;51.316;5.994;2023-03-01T02:42:57;1.50;99.90
49224;DHT22;35050;51.316;5.994;2023-03-01T02:45:25;1.50;99.90
49224;DHT22;35050;51.316;5.994;2023-03-01T02:47:55;1.50;99.90
49224;DHT22;35050;51.316;5.994;2023-03-01T02:53:09;1.30;99.90
49224;DHT22;35050;51.316;5.994;2023-03-01T02:55:36;1.40;99.90
49224;DHT22;35050;51.316;5.994;2023-03-01T02:58:03;1.30;99.90
49224;DHT22;35050;51.316;5.994;2023-03-01T03:00:34;1.30;99.90
49224;DHT22;35050;51.316;5.994;2023-03-01T03:03:01;1.30;99.90
49224;DHT22;35050;51.316;5.994;2023-03-01T03:05:29;1.40;99.90
49224;DHT22;35050;51.316;5.994;2023-03-01T03:07:55;1.30;99.90
49224;DHT22;35050;51.316;5.994;2023-03-01T03:10:36;1.40;99.90
49224;DHT22;35050;51.316;5.994;2023-03-01T03:13:08;1.30;99.90
49224;DHT22;35050;51.316;5.994;2023-03-01T03:15:34;1.30;99.90
49224;DHT22;35050;51.316;5.994;2023-03-01T03:18:02;1.30;99.90
49224;DHT22;35050;51.316;5.994;2023-03-01T03:20:29;1.20;99.90
49224;DHT22;35050;51.316;5.994;2023-03-01T03:22:56;1.20;99.90
49224;DHT22;35050;51.316;5.994;2023-03-01T03:25:24;1.20;99.90
49224;DHT22;35050;51.316;5.994;2023-03-01T03:27:51;1.30;99.90
49224;DHT22;35050;51.316;5.994;2023-03-01T03:30:32;1.30;99.90
49224;DHT22;35050;51.316;5.994;2023-03-01T03:32:58;1.20;99.90
49224;DHT22;35050;51.316;5.994;2023-03-01T03:35:33;1.20;99.90
49224;DHT22;35050;51.316;5.994;2023-03-01T03:38:01;1.20;99.90
49224;DHT22;35050;51.316;5.994;2023-03-01T03:40:50;1.20;99.90
49224;DHT22;35050;51.316;5.994;2023-03-01T03:43:18;1.20;99.90
49224;DHT22;35050;51.316;5.994;2023-03-01T03:45:45;0.70;99.90
49224;DHT22;35050;51.316;5.994;2023-03-01T03:48:11;1.00;99.90
49224;DHT22;35050;51.316;5.994;2023-03-01T03:50:38;1.00;99.90
49224;DHT22;35050;51.316;5.994;2023-03-01T03:53:06;0.80;99.90
49224;DHT22;35050;51.316;5.994;2023-03-01T03:55:33;1.00;99.90
49224;DHT22;35050;51.316;5.994;2023-03-01T03:58:00;1.10;99.90
49224;DHT22;35050;51.316;5.994;2023-03-01T04:00:36;1.00;99.90
49224;DHT22;35050;51.316;5.994;2023-03-01T04:03:03;0.90;99.90
49224;DHT22;35050;51.316;5.994;2023-03-01T04:05:29;1.00;99.90
49224;DHT22;35050;51.316;5.994;2023-03-01T04:07:55;1.00;99.90
49224;DHT22;35050;51.316;5.994;2023-03-01T04:10:31;0.90;99.90
49224;DHT22;35050;51.316;5.994;2023-03-01T04:12:57;1.00;99.90
49224;DHT22;35050;51.316;5.994;2023-03-01T04:15:25;1.10;99.90
49224;DHT22;35050;51.316;5.994;2023-03-01T04:17:52;1.00;99.90
49224;DHT22;35050;51.316;5.994;2023-03-01T04:20:29;0.90;99.90
49224;DHT22;35050;51.316;5.994;2023-03-01T04:23:04;1.00;99.90
49224;DHT22;35050;51.316;5.994;2023-03-01T04:25:49;1.00;99.90
49224;DHT22;35050;51.316;5.994;2023-03-01T04:28:23;1.10;99.90
49224;DHT22;35050;51.316;5.994;2023-03-01T04:30:53;0.90;99.90
49224;DHT22;35050;51.316;5.994;2023-03-01T04:33:20;0.70;99.90
49224;DHT22;35050;51.316;5.994;2023-03-01T04:35:46;0.80;99.90
49224;DHT22;35050;51.316;5.994;2023-03-01T04:38:15;0.80;99.90
49224;DHT22;35050;51.316;5.994;2023-03-01T04:40:41;0.80;99.90
49224;DHT22;35050;51.316;5.994;2023-03-01T04:43:09;0.80;99.90
49224;DHT22;35050;51.316;5.994;2023-03-01T04:45:35;0.90;99.90
49224;DHT22;35050;51.316;5.994;2023-03-01T04:48:02;0.80;99.90
49224;DHT22;35050;51.316;5.994;2023-03-01T04:50:28;0.90;99.90
49224;DHT22;35050;51.316;5.994;2023-03-01T04:52:55;0.70;99.90
49224;DHT22;35050;51.316;5.994;2023-03-01T04:55:25;0.70;99.90
49224;DHT22;35050;51.316;5.994;2023-03-01T04:57:51;0.80;99.90
49224;DHT22;35050;51.316;5.994;2023-03-01T05:00:16;0.90;99.90
49224;DHT22;35050;51.316;5.994;2023-03-01T05:02:50;0.70;99.90
49224;DHT22;35050;51.316;5.994;2023-03-01T05:05:38;0.70;99.90
49224;DHT22;35050;51.316;5.994;2023-03-01T05:08:08;0.70;99.90
49224;DHT22;35050;51.316;5.994;2023-03-01T05:10:35;0.70;99.90
49224;DHT22;35050;51.316;5.994;2023-03-01T05:13:02;0.60;99.90
49224;DHT22;35050;51.316;5.994;2023-03-01T05:15:30;0.70;99.90
49224;DHT22;35050;51.316;5.994;2023-03-01T05:17:58;0.70;99.90
49224;DHT22;35050;51.316;5.994;2023-03-01T05:20:29;0.70;99.90
49224;DHT22;35050;51.316;5.994;2023-03-01T05:22:59;0.70;99.90
49224;DHT22;35050;51.316;5.994;2023-03-01T05:25:26;0.70;99.90
49224;DHT22;35050;51.316;5.994;2023-03-01T05:27:51;0.70;99.90
49224;DHT22;35050;51.316;5.994;2023-03-01T05:30:17;0.70;99.90
49224;DHT22;35050;51.316;5.994;2023-03-01T05:32:48;0.60;99.90
49224;DHT22;35050;51.316;5.994;2023-03-01T05:35:16;0.60;99.90
49224;DHT22;35050;51.316;5.994;2023-03-01T05:37:43;0.80;99.90
49224;DHT22;35050;51.316;5.994;2023-03-01T05:40:11;0.70;99.90
49224;DHT22;35050;51.316;5.994;2023-03-01T05:42:42;0.60;99.90
49224;DHT22;35050;51.316;5.994;2023-03-01T05:45:09;0.50;99.90
49224;DHT22;35050;51.316;5.994;2023-03-01T05:47:35;0.50;99.90
49224;DHT22;35050;51.316;5.994;2023-03-01T05:50:01;0.50;99.90
49224;DHT22;35050;51.316;5.994;2023-03-01T05:52:27;0.50;99.90
49224;DHT22;35050;51.316;5.994;2023-03-01T05:54:52;0.40;99.90
49224;DHT22;35050;51.316;5.994;2023-03-01T05:57:18;0.40;99.90
49224;DHT22;35050;51.316;5.994;2023-03-01T05:59:45;0.70;99.90
49224;DHT22;35050;51.316;5.994;2023-03-01T06:02:10;0.50;99.90
49224;DHT22;35050;51.316;5.994;2023-03-01T06:04:36;0.40;99.90
49224;DHT22;35050;51.316;5.994;2023-03-01T06:07:01;0.40;99.90
49224;DHT22;35050;51.316;5.994;2023-03-01T06:09:27;0.40;99.90
49224;DHT22;35050;51.316;5.994;2023-03-01T06:11:53;0.30;99.90
49224;DHT22;35050;51.316;5.994;2023-03-01T06:14:19;0.40;99.90
49224;DHT22;35050;51.316;5.994;2023-03-01T06:16:46;0.50;99.90
49224;DHT22;35050;51.316;5.994;2023-03-01T06:19:11;0.30;99.90
49224;DHT22;35050;51.316;5.994;2023-03-01T06:21:37;0.40;99.90
49224;DHT22;35050;51.316;5.994;2023-03-01T06:24:03;0.30;99.90
49224;DHT22;35050;51.316;5.994;2023-03-01T06:26:29;0.30;99.90
49224;DHT22;35050;51.316;5.994;2023-03-01T06:28:54;0.30;99.90
49224;DHT22;35050;51.316;5.994;2023-03-01T06:31:20;0.20;99.90
49224;DHT22;35050;51.316;5.994;2023-03-01T06:33:45;0.20;99.90
49224;DHT22;35050;51.316;5.994;2023-03-01T06:36:11;0.30;99.90
49224;DHT22;35050;51.316;5.994;2023-03-01T06:38:37;0.20;99.90
49224;DHT22;35050;51.316;5.994;2023-03-01T06:41:02;0.20;99.90
49224;DHT22;35050;51.316;5.994;2023-03-01T06:43:28;0.30;99.90
49224;DHT22;35050;51.316;5.994;2023-03-01T06:45:54;0.20;99.90
49224;DHT22;35050;51.316;5.994;2023-03-01T06:48:19;0.20;99.90
49224;DHT22;35050;51.316;5.994;2023-03-01T06:50:45;0.30;99.90
49224;DHT22;35050;51.316;5.994;2023-03-01T06:53:11;0.30;99.90
49224;DHT22;35050;51.316;5.994;2023-03-01T06:55:36;0.30;99.90
49224;DHT22;35050;51.316;5.994;2023-03-01T06:58:03;0.30;99.90
49224;DHT22;35050;51.316;5.994;2023-03-01T07:00:29;0.30;99.90
49224;DHT22;35050;51.316;5.994;2023-03-01T07:02:59;0.90;99.90
49224;DHT22;35050;51.316;5.994;2023-03-01T07:05:25;0.60;99.90
49224;DHT22;35050;51.316;5.994;2023-03-01T07:07:50;0.60;99.90
49224;DHT22;35050;51.316;5.994;2023-03-01T07:10:16;0.50;99.90
49224;DHT22;35050;51.316;5.994;2023-03-01T07:12:42;0.50;99.90
49224;DHT22;35050;51.316;5.994;2023-03-01T07:15:08;0.50;99.90
49224;DHT22;35050;51.316;5.994;2023-03-01T07:17:35;0.50;99.90
49224;DHT22;35050;51.316;5.994;2023-03-01T07:20:00;0.40;99.90
49224;DHT22;35050;51.316;5.994;2023-03-01T07:22:26;0.50;99.90
49224;DHT22;35050;51.316;5.994;2023-03-01T07:24:51;0.60;99.90
49224;DHT22;35050;51.316;5.994;2023-03-01T07:27:17;0.60;99.90
49224;DHT22;35050;51.316;5.994;2023-03-01T07:29:42;0.80;99.90
49224;DHT22;35050;51.316;5.994;2023-03-01T07:32:09;0.70;99.90
49224;DHT22;35050;51.316;5.994;2023-03-01T07:34:35;0.70;99.90
49224;DHT22;35050;51.316;5.994;2023-03-01T07:37:00;0.80;99.90
49224;DHT22;35050;51.316;5.994;2023-03-01T07:39:27;0.90;99.90
49224;DHT22;35050;51.316;5.994;2023-03-01T07:41:52;0.90;99.90
49224;DHT22;35050;51.316;5.994;2023-03-01T07:44:18;0.90;99.90
49224;DHT22;35050;51.316;5.994;2023-03-01T07:46:44;1.10;99.90
49224;DHT22;35050;51.316;5.994;2023-03-01T07:49:10;1.00;99.90
49224;DHT22;35050;51.316;5.994;2023-03-01T07:51:35;1.00;99.90
49224;DHT22;35050;51.316;5.994;2023-03-01T07:54:01;1.00;99.90
49224;DHT22;35050;51.316;5.994;2023-03-01T07:56:27;1.10;99.90
49224;DHT22;35050;51.316;5.994;2023-03-01T07:58:52;1.20;99.90
49224;DHT22;35050;51.316;5.994;2023-03-01T08:01:20;1.30;99.90
49224;DHT22;35050;51.316;5.994;2023-03-01T08:03:46;1.30;99.90
49224;DHT22;35050;51.316;5.994;2023-03-01T08:06:14;1.40;99.90
49224;DHT22;35050;51.316;5.994;2023-03-01T08:08:40;1.50;99.90
49224;DHT22;35050;51.316;5.994;2023-03-01T08:11:10;1.70;99.90
49224;DHT22;35050;51.316;5.994;2023-03-01T08:13:36;1.70;99.90
49224;DHT22;35050;51.316;5.994;2023-03-01T08:16:04;1.90;99.90
49224;DHT22;35050;51.316;5.994;2023-03-01T08:18:30;1.90;99.90
49224;DHT22;35050;51.316;5.994;2023-03-01T08:20:55;2.10;99.90
49224;DHT22;35050;51.316;5.994;2023-03-01T08:23:21;2.20;99.90
49224;DHT22;35050;51.316;5.994;2023-03-01T08:25:47;2.60;99.90
49224;DHT22;35050;51.316;5.994;2023-03-01T08:28:12;2.60;99.90
49224;DHT22;35050;51.316;5.994;2023-03-01T08:30:38;2.80;99.90
49224;DHT22;35050;51.316;5.994;2023-03-01T08:33:03;2.70;99.90
49224;DHT22;35050;51.316;5.994;2023-03-01T08:35:29;2.70;99.90
49224;DHT22;35050;51.316;5.994;2023-03-01T08:37:55;2.90;99.90
49224;DHT22;35050;51.316;5.994;2023-03-01T08:40:20;2.90;99.90
49224;DHT22;35050;51.316;5.994;2023-03-01T08:42:46;2.90;99.90
49224;DHT22;35050;51.316;5.994;2023-03-01T08:45:12;2.50;99.90
49224;DHT22;35050;51.316;5.994;2023-03-01T08:47:39;2.90;99.90
49224;DHT22;35050;51.316;5.994;2023-03-01T08:50:05;3.00;99.90
49224;DHT22;35050;51.316;5.994;2023-03-01T08:52:32;2.90;99.90
49224;DHT22;35050;51.316;5.994;2023-03-01T08:54:58;3.00;99.90
49224;DHT22;35050;51.316;5.994;2023-03-01T08:57:26;2.90;99.90
49224;DHT22;35050;51.316;5.994;2023-03-01T08:59:52;2.80;99.90
49224;DHT22;35050;51.316;5.994;2023-03-01T09:02:18;3.00;99.90
49224;DHT22;35050;51.316;5.994;2023-03-01T09:04:44;2.80;99.90
49224;DHT22;35050;51.316;5.994;2023-03-01T09:07:11;2.70;99.90
49224;DHT22;35050;51.316;5.994;2023-03-01T09:09:37;3.20;99.90
49224;DHT22;35050;51.316;5.994;2023-03-01T09:12:03;3.40;99.90
49224;DHT22;35050;51.316;5.994;2023-03-01T09:14:29;3.80;99.90
49224;DHT22;35050;51.316;5.994;2023-03-01T09:16:55;3.80;99.90
49224;DHT22;35050;51.316;5.994;2023-03-01T09:19:20;4.10;99.90
49224;DHT22;35050;51.316;5.994;2023-03-01T09:21:46;4.40;99.90
49224;DHT22;35050;51.316;5.994;2023-03-01T09:24:21;4.50;99.90
49224;DHT22;35050;51.316;5.994;2023-03-01T09:26:48;4.80;99.90
49224;DHT22;35050;51.316;5.994;2023-03-01T09:29:15;4.70;99.90
49224;DHT22;35050;51.316;5.994;2023-03-01T09:31:41;4.50;99.90
49224;DHT22;35050;51.316;5.994;2023-03-01T09:34:08;4.60;99.90
49224;DHT22;35050;51.316;5.994;2023-03-01T09:36:34;5.00;99.90
49224;DHT22;35050;51.316;5.994;2023-03-01T09:39:01;5.30;99.90
49224;DHT22;35050;51.316;5.994;2023-03-01T09:46:52;4.90;99.90
49224;DHT22;35050;51.316;5.994;2023-03-01T09:49:21;5.20;99.90
49224;DHT22;35050;51.316;5.994;2023-03-01T09:52:11;5.30;99.90
49224;DHT22;35050;51.316;5.994;2023-03-01T09:54:41;5.40;99.90
49224;DHT22;35050;51.316;5.994;2023-03-01T09:57:17;5.40;99.90
49224;DHT22;35050;51.316;5.994;2023-03-01T10:00:37;5.30;99.90
49224;DHT22;35050;51.316;5.994;2023-03-01T10:02:47;5.70;99.90
49224;DHT22;35050;51.316;5.994;2023-03-01T10:05:37;6.00;99.90
49224;DHT22;35050;51.316;5.994;2023-03-01T10:10:52;6.40;99.30
49224;DHT22;35050;51.316;5.994;2023-03-01T10:13:41;6.70;99.60
49224;DHT22;35050;51.316;5.994;2023-03-01T10:16:17;7.60;98.00
49224;DHT22;35050;51.316;5.994;2023-03-01T10:18:49;7.70;96.80
49224;DHT22;35050;51.316;5.994;2023-03-01T10:21:18;7.90;96.20
49224;DHT22;35050;51.316;5.994;2023-03-01T10:23:46;7.60;95.50
49224;DHT22;35050;51.316;5.994;2023-03-01T10:29:09;7.70;95.60
49224;DHT22;35050;51.316;5.994;2023-03-01T10:31:46;7.70;95.30
49224;DHT22;35050;51.316;5.994;2023-03-01T10:34:16;7.80;94.40
49224;DHT22;35050;51.316;5.994;2023-03-01T10:36:42;7.70;94.80
49224;DHT22;35050;51.316;5.994;2023-03-01T10:39:18;9.00;99.40
49224;DHT22;35050;51.316;5.994;2023-03-01T10:42:05;8.10;93.30
49224;DHT22;35050;51.316;5.994;2023-03-01T10:44:45;8.00;93.60
49224;DHT22;35050;51.316;5.994;2023-03-01T10:47:31;8.70;93.70
49224;DHT22;35050;51.316;5.994;2023-03-01T10:49:59;8.40;91.70
49224;DHT22;35050;51.316;5.994;2023-03-01T10:52:40;8.50;92.40
49224;DHT22;35050;51.316;5.994;2023-03-01T10:57:40;8.90;90.90
49224;DHT22;35050;51.316;5.994;2023-03-01T11:00:25;9.90;95.50
49224;DHT22;35050;51.316;5.994;2023-03-01T11:03:08;9.70;89.30
49224;DHT22;35050;51.316;5.994;2023-03-01T11:05:35;9.40;88.00
49224;DHT22;35050;51.316;5.994;2023-03-01T11:08:02;8.70;86.80
49224;DHT22;35050;51.316;5.994;2023-03-01T11:13:18;9.20;89.70
49224;DHT22;35050;51.316;5.994;2023-03-01T11:16:06;8.90;90.20
49224;DHT22;35050;51.316;5.994;2023-03-01T11:18:33;9.80;87.70
49224;DHT22;35050;51.316;5.994;2023-03-01T11:20:59;9.90;86.40
49224;DHT22;35050;51.316;5.994;2023-03-01T11:23:28;9.80;86.90
49224;DHT22;35050;51.316;5.994;2023-03-01T11:26:06;10.40;87.70
49224;DHT22;35050;51.316;5.994;2023-03-01T11:28:34;10.60;84.60
49224;DHT22;35050;51.316;5.994;2023-03-01T11:38:55;11.00;83.00
49224;DHT22;35050;51.316;5.994;2023-03-01T11:41:26;11.00;80.70
49224;DHT22;35050;51.316;5.994;2023-03-01T12:05:20;12.50;77.40
49224;DHT22;35050;51.316;5.994;2023-03-01T12:08:06;11.90;75.00
49224;DHT22;35050;51.316;5.994;2023-03-01T12:10:56;11.90;77.00
49224;DHT22;35050;51.316;5.994;2023-03-01T12:21:49;13.20;72.10
49224;DHT22;35050;51.316;5.994;2023-03-01T12:29:52;13.30;70.80
49224;DHT22;35050;51.316;5.994;2023-03-01T12:40:55;13.40;72.20
49224;DHT22;35050;51.316;5.994;2023-03-01T12:46:06;13.60;70.30
49224;DHT22;35050;51.316;5.994;2023-03-01T12:48:55;14.10;70.90
49224;DHT22;35050;51.316;5.994;2023-03-01T12:51:26;14.30;70.20
49224;DHT22;35050;51.316;5.994;2023-03-01T12:53:55;13.50;68.60
49224;DHT22;35050;51.316;5.994;2023-03-01T12:56:24;13.60;70.50
49224;DHT22;35050;51.316;5.994;2023-03-01T12:59:19;14.30;70.00
49224;DHT22;35050;51.316;5.994;2023-03-01T13:04:34;14.10;69.00
49224;DHT22;35050;51.316;5.994;2023-03-01T13:09:58;14.20;68.00
49224;DHT22;35050;51.316;5.994;2023-03-01T13:15:35;15.10;68.10
49224;DHT22;35050;51.316;5.994;2023-03-01T13:20:44;15.60;65.50
49224;DHT22;35050;51.316;5.994;2023-03-01T13:23:25;15.50;65.50
49224;DHT22;35050;51.316;5.994;2023-03-01T13:26:17;15.30;65.20
49224;DHT22;35050;51.316;5.994;2023-03-01T13:33:50;15.70;64.90
49224;DHT22;35050;51.316;5.994;2023-03-01T13:38:58;15.20;62.70
49224;DHT22;35050;51.316;5.994;2023-03-01T13:46:46;16.30;61.10
49224;DHT22;35050;51.316;5.994;2023-03-01T13:49:16;16.40;61.30
49224;DHT22;35050;51.316;5.994;2023-03-01T13:51:46;16.70;62.00
49224;DHT22;35050;51.316;5.994;2023-03-01T13:54:12;16.30;62.20
49224;DHT22;35050;51.316;5.994;2023-03-01T13:56:39;16.00;61.50
49224;DHT22;35050;51.316;5.994;2023-03-01T13:59:25;15.90;63.30
49224;DHT22;35050;51.316;5.994;2023-03-01T14:02:00;16.40;61.00
49224;DHT22;35050;51.316;5.994;2023-03-01T14:07:08;16.10;61.30
49224;DHT22;35050;51.316;5.994;2023-03-01T14:09:46;15.90;60.90
49224;DHT22;35050;51.316;5.994;2023-03-01T14:15:31;14.80;62.20
49224;DHT22;35050;51.316;5.994;2023-03-01T14:18:26;15.50;60.90
49224;DHT22;35050;51.316;5.994;2023-03-01T14:20:55;14.80;61.60
49224;DHT22;35050;51.316;5.994;2023-03-01T14:23:22;14.50;62.90
49224;DHT22;35050;51.316;5.994;2023-03-01T14:25:51;14.00;63.50
49224;DHT22;35050;51.316;5.994;2023-03-01T14:28:24;13.70;63.10
49224;DHT22;35050;51.316;5.994;2023-03-01T14:30:53;12.90;65.00
49224;DHT22;35050;51.316;5.994;2023-03-01T14:33:33;13.40;65.90
49224;DHT22;35050;51.316;5.994;2023-03-01T14:36:10;13.40;65.10
49224;DHT22;35050;51.316;5.994;2023-03-01T14:38:47;12.30;65.00
49224;DHT22;35050;51.316;5.994;2023-03-01T14:41:15;13.10;66.40
49224;DHT22;35050;51.316;5.994;2023-03-01T14:43:45;13.00;65.70
49224;DHT22;35050;51.316;5.994;2023-03-01T14:46:20;12.90;65.50
49224;DHT22;35050;51.316;5.994;2023-03-01T14:48:50;13.10;66.00
49224;DHT22;35050;51.316;5.994;2023-03-01T14:51:16;12.90;66.40
49224;DHT22;35050;51.316;5.994;2023-03-01T14:53:42;13.80;65.80
49224;DHT22;35050;51.316;5.994;2023-03-01T14:56:14;13.80;66.20
49224;DHT22;35050;51.316;5.994;2023-03-01T14:58:39;13.80;65.40
49224;DHT22;35050;51.316;5.994;2023-03-01T15:01:06;13.40;65.80
49224;DHT22;35050;51.316;5.994;2023-03-01T15:03:45;13.30;66.00
49224;DHT22;35050;51.316;5.994;2023-03-01T15:06:15;13.60;65.70
49224;DHT22;35050;51.316;5.994;2023-03-01T15:08:45;13.30;65.50
49224;DHT22;35050;51.316;5.994;2023-03-01T15:11:28;13.00;65.30
49224;DHT22;35050;51.316;5.994;2023-03-01T15:13:53;13.20;65.60
49224;DHT22;35050;51.316;5.994;2023-03-01T15:16:39;12.80;65.00
49224;DHT22;35050;51.316;5.994;2023-03-01T15:19:06;11.90;66.10
49224;DHT22;35050;51.316;5.994;2023-03-01T15:21:37;12.00;67.10
49224;DHT22;35050;51.316;5.994;2023-03-01T15:26:59;11.70;67.60
49224;DHT22;35050;51.316;5.994;2023-03-01T15:29:29;11.70;68.20
49224;DHT22;35050;51.316;5.994;2023-03-01T15:34:34;10.80;67.40
49224;DHT22;35050;51.316;5.994;2023-03-01T15:37:04;10.70;68.40
49224;DHT22;35050;51.316;5.994;2023-03-01T15:39:38;10.80;68.00
49224;DHT22;35050;51.316;5.994;2023-03-01T15:44:49;10.80;67.90
49224;DHT22;35050;51.316;5.994;2023-03-01T15:47:29;10.60;68.10
49224;DHT22;35050;51.316;5.994;2023-03-01T15:49:57;10.80;68.70
49224;DHT22;35050;51.316;5.994;2023-03-01T15:52:29;11.10;68.10
49224;DHT22;35050;51.316;5.994;2023-03-01T15:55:02;11.00;68.50
49224;DHT22;35050;51.316;5.994;2023-03-01T15:57:28;10.90;68.50
49224;DHT22;35050;51.316;5.994;2023-03-01T15:59:54;11.40;68.50
49224;DHT22;35050;51.316;5.994;2023-03-01T16:02:20;10.60;68.50
49224;DHT22;35050;51.316;5.994;2023-03-01T16:04:47;11.00;68.70
49224;DHT22;35050;51.316;5.994;2023-03-01T16:07:14;11.80;68.30
49224;DHT22;35050;51.316;5.994;2023-03-01T16:09:40;12.00;68.20
49224;DHT22;35050;51.316;5.994;2023-03-01T16:12:13;11.70;68.50
49224;DHT22;35050;51.316;5.994;2023-03-01T16:14:39;11.50;69.30
49224;DHT22;35050;51.316;5.994;2023-03-01T16:17:05;10.80;70.80
49224;DHT22;35050;51.316;5.994;2023-03-01T16:19:32;10.50;71.20
49224;DHT22;35050;51.316;5.994;2023-03-01T16:21:58;10.20;71.10
49224;DHT22;35050;51.316;5.994;2023-03-01T16:24:24;10.30;71.50
49224;DHT22;35050;51.316;5.994;2023-03-01T16:26:51;10.30;71.40
49224;DHT22;35050;51.316;5.994;2023-03-01T16:29:17;10.30;72.30
49224;DHT22;35050;51.316;5.994;2023-03-01T16:31:42;9.70;72.20
49224;DHT22;35050;51.316;5.994;2023-03-01T16:34:08;9.70;72.80
49224;DHT22;35050;51.316;5.994;2023-03-01T16:36:34;9.60;73.50
49224;DHT22;35050;51.316;5.994;2023-03-01T16:39:00;9.60;74.20
49224;DHT22;35050;51.316;5.994;2023-03-01T16:41:27;9.90;73.20
49224;DHT22;35050;51.316;5.994;2023-03-01T16:43:52;9.50;72.90
49224;DHT22;35050;51.316;5.994;2023-03-01T16:46:21;9.70;73.70
49224;DHT22;35050;51.316;5.994;2023-03-01T16:48:48;9.80;74.20
49224;DHT22;35050;51.316;5.994;2023-03-01T16:51:14;9.90;73.50
49224;DHT22;35050;51.316;5.994;2023-03-01T16:53:40;9.70;74.00
49224;DHT22;35050;51.316;5.994;2023-03-01T16:56:08;9.40;73.20
49224;DHT22;35050;51.316;5.994;2023-03-01T16:58:36;9.20;73.70
49224;DHT22;35050;51.316;5.994;2023-03-01T17:01:19;9.50;74.10
49224;DHT22;35050;51.316;5.994;2023-03-01T17:03:46;9.10;73.80
49224;DHT22;35050;51.316;5.994;2023-03-01T17:06:15;9.10;74.10
49224;DHT22;35050;51.316;5.994;2023-03-01T17:08:41;9.20;74.20
49224;DHT22;35050;51.316;5.994;2023-03-01T17:11:13;8.90;74.00
49224;DHT22;35050;51.316;5.994;2023-03-01T17:13:39;9.10;74.80
49224;DHT22;35050;51.316;5.994;2023-03-01T17:16:10;9.10;74.90
49224;DHT22;35050;51.316;5.994;2023-03-01T17:18:37;9.10;74.60
49224;DHT22;35050;51.316;5.994;2023-03-01T17:21:04;9.10;75.30
49224;DHT22;35050;51.316;5.994;2023-03-01T17:23:31;9.00;75.50
49224;DHT22;35050;51.316;5.994;2023-03-01T17:25:57;9.00;75.70
49224;DHT22;35050;51.316;5.994;2023-03-01T17:28:25;8.80;76.60
49224;DHT22;35050;51.316;5.994;2023-03-01T17:30:51;8.60;77.00
49224;DHT22;35050;51.316;5.994;2023-03-01T17:33:18;8.60;76.50
49224;DHT22;35050;51.316;5.994;2023-03-01T17:35:45;8.40;77.00
49224;DHT22;35050;51.316;5.994;2023-03-01T17:38:15;8.40;77.50
49224;DHT22;35050;51.316;5.994;2023-03-01T17:40:42;8.60;77.60
49224;DHT22;35050;51.316;5.994;2023-03-01T17:43:11;9.20;78.20
49224;DHT22;35050;51.316;5.994;2023-03-01T17:45:37;8.80;77.40
49224;DHT22;35050;51.316;5.994;2023-03-01T17:48:04;8.60;77.20
49224;DHT22;35050;51.316;5.994;2023-03-01T17:50:29;8.30;77.60
49224;DHT22;35050;51.316;5.994;2023-03-01T17:52:55;8.20;78.30
49224;DHT22;35050;51.316;5.994;2023-03-01T17:55:21;8.10;78.20
49224;DHT22;35050;51.316;5.994;2023-03-01T17:57:47;8.20;78.40